createdAt,value
2022-08-31T00:00:17.471Z,20.67
2022-08-31T00:03:03.143Z,20.65
2022-08-31T00:05:30.316Z,20.59
2022-08-31T00:07:57.328Z,20.58
2022-08-31T00:10:31.930Z,20.52
2022-08-31T00:13:01.222Z,20.54
2022-08-31T00:15:30.435Z,20.53
2022-08-31T00:17:58.776Z,20.45
2022-08-31T00:20:33.620Z,20.47
2022-08-31T00:23:03.497Z,20.40
2022-08-31T00:25:31.200Z,20.39
2022-08-31T00:27:58.269Z,20.28
2022-08-31T00:30:25.453Z,20.30
2022-08-31T00:32:52.824Z,20.29
2022-08-31T00:35:20.065Z,20.27
2022-08-31T00:37:47.254Z,20.19
2022-08-31T00:40:14.561Z,20.21
2022-08-31T00:42:41.671Z,20.21
2022-08-31T00:45:10.259Z,20.21
2022-08-31T00:47:37.358Z,20.15
2022-08-31T00:50:09.214Z,20.13
2022-08-31T00:52:41.073Z,20.10
2022-08-31T00:55:14.329Z,20.09
2022-08-31T00:57:44.889Z,20.03
2022-08-31T01:00:17.581Z,19.98
2022-08-31T01:02:45.695Z,19.98
2022-08-31T01:05:14.516Z,19.98
2022-08-31T01:07:42.379Z,19.96
2022-08-31T01:10:10.610Z,19.90
2022-08-31T01:12:38.314Z,19.84
2022-08-31T01:15:08.794Z,19.80
2022-08-31T01:17:36.919Z,19.79
2022-08-31T01:20:22.689Z,19.81
2022-08-31T01:22:55.438Z,19.76
2022-08-31T01:25:22.692Z,19.74
2022-08-31T01:27:49.816Z,19.71
2022-08-31T01:30:26.117Z,19.67
2022-08-31T01:32:53.501Z,19.59
2022-08-31T01:35:20.658Z,19.61
2022-08-31T01:37:48.025Z,19.55
2022-08-31T01:40:16.432Z,19.47
2022-08-31T01:42:43.848Z,19.38
2022-08-31T01:45:11.885Z,19.40
2022-08-31T01:47:40.467Z,19.26
2022-08-31T01:50:08.661Z,19.31
2022-08-31T01:52:37.807Z,19.33
2022-08-31T01:55:07.815Z,19.14
2022-08-31T01:57:35.104Z,19.15
2022-08-31T02:00:25.928Z,19.15
2022-08-31T02:02:52.960Z,19.10
2022-08-31T02:05:19.998Z,19.11
2022-08-31T02:07:47.305Z,19.11
2022-08-31T02:10:14.425Z,18.97
2022-08-31T02:12:41.524Z,19.01
2022-08-31T02:15:10.257Z,18.96
2022-08-31T02:17:37.489Z,18.95
2022-08-31T02:20:08.718Z,18.89
2022-08-31T02:22:36.127Z,18.65
2022-08-31T02:25:03.706Z,18.68
2022-08-31T02:27:30.997Z,18.73
2022-08-31T02:29:58.058Z,18.74
2022-08-31T02:32:25.274Z,18.66
2022-08-31T02:34:52.421Z,18.71
2022-08-31T02:37:20.214Z,18.65
2022-08-31T02:39:48.799Z,18.52
2022-08-31T02:42:18.575Z,18.54
2022-08-31T02:44:46.511Z,18.56
2022-08-31T02:47:13.531Z,18.58
2022-08-31T02:49:45.636Z,18.36
2022-08-31T02:52:13.422Z,18.40
2022-08-31T02:54:41.128Z,18.35
2022-08-31T02:57:08.375Z,18.30
2022-08-31T02:59:35.377Z,18.30
2022-08-31T03:02:02.549Z,18.36
2022-08-31T03:04:30.676Z,18.40
2022-08-31T03:06:57.733Z,18.47
2022-08-31T03:09:24.879Z,18.52
2022-08-31T03:11:52.029Z,18.40
2022-08-31T03:14:19.035Z,18.50
2022-08-31T03:16:46.244Z,18.46
2022-08-31T03:19:20.756Z,18.49
2022-08-31T03:21:47.964Z,18.42
2022-08-31T03:24:23.005Z,18.44
2022-08-31T03:26:55.203Z,18.46
2022-08-31T03:29:22.494Z,18.50
2022-08-31T03:32:08.464Z,18.53
2022-08-31T03:34:37.353Z,18.54
2022-08-31T03:37:04.474Z,18.57
2022-08-31T03:39:31.837Z,18.50
2022-08-31T03:41:58.948Z,18.53
2022-08-31T03:44:25.916Z,18.54
2022-08-31T03:46:56.671Z,18.50
2022-08-31T03:49:25.214Z,18.51
2022-08-31T03:52:15.682Z,18.53
2022-08-31T03:54:46.653Z,18.49
2022-08-31T03:57:14.113Z,18.53
2022-08-31T03:59:41.131Z,18.55
2022-08-31T04:02:20.983Z,18.49
2022-08-31T04:05:18.044Z,18.49
2022-08-31T04:08:03.952Z,18.58
2022-08-31T04:11:11.669Z,18.63
2022-08-31T04:13:59.151Z,18.76
2022-08-31T04:16:36.673Z,18.80
2022-08-31T04:19:41.433Z,18.88
2022-08-31T04:22:17.828Z,18.87
2022-08-31T04:25:05.292Z,18.91
2022-08-31T04:27:33.869Z,18.94
2022-08-31T04:30:02.183Z,19.11
2022-08-31T04:32:31.821Z,19.17
2022-08-31T04:34:58.839Z,19.22
2022-08-31T04:37:25.957Z,19.44
2022-08-31T04:39:53.350Z,19.56
2022-08-31T04:42:20.618Z,19.63
2022-08-31T04:44:47.621Z,19.81
2022-08-31T04:47:14.655Z,19.93
2022-08-31T04:49:44.121Z,19.99
2022-08-31T04:52:11.161Z,20.22
2022-08-31T04:54:38.255Z,20.22
2022-08-31T04:57:05.555Z,20.48
2022-08-31T04:59:33.329Z,20.56
2022-08-31T05:02:15.819Z,20.72
2022-08-31T05:04:52.373Z,20.80
2022-08-31T05:07:19.822Z,20.76
2022-08-31T05:09:47.073Z,20.71
2022-08-31T05:12:14.121Z,20.71
2022-08-31T05:14:42.162Z,20.77
2022-08-31T05:17:19.611Z,20.85
2022-08-31T05:19:46.778Z,21.01
2022-08-31T05:22:15.644Z,21.27
2022-08-31T05:24:44.458Z,21.26
2022-08-31T05:27:12.990Z,21.23
2022-08-31T05:29:41.015Z,21.25
2022-08-31T05:32:30.884Z,20.63
2022-08-31T05:35:00.466Z,20.61
2022-08-31T05:37:27.568Z,20.25
2022-08-31T05:39:55.187Z,20.50
2022-08-31T05:42:22.318Z,20.66
2022-08-31T05:44:49.485Z,20.42
2022-08-31T05:47:17.057Z,20.28
2022-08-31T05:49:44.616Z,20.39
2022-08-31T05:52:15.660Z,20.43
2022-08-31T05:54:43.815Z,20.29
2022-08-31T05:57:10.812Z,20.19
2022-08-31T05:59:39.895Z,20.23
2022-08-31T06:02:10.705Z,20.18
2022-08-31T06:04:38.690Z,20.17
2022-08-31T06:07:05.743Z,20.12
2022-08-31T06:09:48.300Z,20.01
2022-08-31T06:12:20.646Z,19.96
2022-08-31T06:14:51.273Z,20.11
2022-08-31T06:17:20.522Z,20.59
2022-08-31T06:19:47.853Z,21.59
2022-08-31T06:22:14.944Z,22.19
2022-08-31T06:24:43.191Z,23.83
2022-08-31T06:27:10.393Z,24.60
2022-08-31T06:29:37.931Z,25.68
2022-08-31T06:32:08.904Z,24.31
2022-08-31T06:34:40.733Z,24.10
2022-08-31T06:37:10.935Z,23.67
2022-08-31T06:39:46.710Z,23.06
2022-08-31T06:42:32.373Z,22.93
2022-08-31T06:45:03.028Z,22.92
2022-08-31T06:47:40.802Z,22.87
2022-08-31T06:50:09.166Z,22.25
2022-08-31T06:52:38.918Z,21.97
2022-08-31T06:55:32.152Z,21.98
2022-08-31T06:58:17.813Z,21.94
2022-08-31T07:00:58.734Z,22.20
2022-08-31T07:03:45.921Z,23.01
2022-08-31T07:06:17.569Z,23.61
2022-08-31T07:08:49.332Z,24.16
2022-08-31T07:11:21.021Z,24.09
2022-08-31T07:13:49.121Z,23.98
2022-08-31T07:16:18.857Z,24.47
2022-08-31T07:18:47.324Z,23.57
2022-08-31T07:21:19.920Z,23.52
2022-08-31T07:23:49.422Z,23.46
2022-08-31T07:26:25.775Z,23.47
2022-08-31T07:28:53.724Z,23.01
2022-08-31T07:31:23.648Z,22.08
2022-08-31T07:33:52.566Z,22.33
2022-08-31T07:36:19.945Z,22.21
2022-08-31T07:39:35.120Z,22.13
2022-08-31T07:42:11.529Z,21.85
2022-08-31T07:44:41.585Z,21.60
2022-08-31T07:47:12.534Z,21.72
2022-08-31T07:49:47.918Z,21.40
2022-08-31T07:52:34.162Z,21.57
2022-08-31T07:55:09.542Z,21.82
2022-08-31T07:57:53.563Z,21.82
2022-08-31T08:00:27.771Z,22.14
2022-08-31T08:02:55.334Z,22.12
2022-08-31T08:05:29.369Z,22.49
2022-08-31T08:08:28.971Z,22.42
2022-08-31T08:11:18.765Z,22.61
2022-08-31T08:13:54.883Z,22.44
2022-08-31T08:16:36.398Z,22.32
2022-08-31T08:19:18.125Z,22.63
2022-08-31T08:21:46.945Z,22.49
2022-08-31T08:24:16.642Z,22.62
2022-08-31T08:27:02.508Z,22.45
2022-08-31T08:29:56.414Z,22.65
2022-08-31T08:32:27.827Z,22.79
2022-08-31T08:34:55.473Z,22.62
2022-08-31T08:37:41.104Z,22.62
2022-08-31T08:40:26.473Z,22.31
2022-08-31T08:42:54.442Z,22.46
2022-08-31T08:45:22.476Z,22.48
2022-08-31T08:47:51.093Z,22.62
2022-08-31T08:50:19.218Z,22.69
2022-08-31T08:52:47.757Z,23.16
2022-08-31T08:55:19.369Z,23.37
2022-08-31T08:57:49.844Z,24.55
2022-08-31T09:00:26.131Z,25.89
2022-08-31T09:03:04.036Z,26.08
2022-08-31T09:05:59.064Z,25.62
2022-08-31T09:08:41.572Z,25.37
2022-08-31T09:11:28.919Z,24.95
2022-08-31T09:13:56.197Z,24.79
2022-08-31T09:16:48.594Z,23.89
2022-08-31T09:19:18.715Z,23.61
2022-08-31T09:21:50.252Z,23.23
2022-08-31T09:24:22.067Z,23.73
2022-08-31T09:27:18.481Z,23.30
2022-08-31T09:29:53.509Z,23.39
2022-08-31T09:32:32.276Z,23.63
2022-08-31T09:35:06.212Z,23.82
2022-08-31T09:37:47.922Z,24.19
2022-08-31T09:40:32.173Z,24.13
2022-08-31T09:43:04.774Z,23.84
2022-08-31T09:45:41.277Z,24.07
2022-08-31T09:48:09.518Z,24.25
2022-08-31T09:50:47.051Z,25.45
2022-08-31T09:53:35.184Z,27.23
2022-08-31T09:56:14.323Z,27.56
2022-08-31T09:58:51.411Z,26.76
2022-08-31T10:01:24.441Z,26.49
2022-08-31T10:04:26.197Z,26.10
2022-08-31T10:06:56.259Z,29.32
2022-08-31T10:09:30.373Z,29.78
2022-08-31T10:12:04.346Z,27.72
2022-08-31T10:15:08.549Z,27.22
2022-08-31T10:17:45.345Z,26.64
2022-08-31T10:20:21.285Z,25.51
2022-08-31T10:22:58.356Z,24.73
2022-08-31T10:25:31.356Z,24.69
2022-08-31T10:28:08.533Z,24.02
2022-08-31T10:31:02.407Z,24.00
2022-08-31T10:33:59.154Z,24.06
2022-08-31T10:36:33.816Z,23.98
2022-08-31T10:39:01.292Z,23.56
2022-08-31T10:41:38.653Z,22.87
2022-08-31T10:44:24.223Z,22.90
2022-08-31T10:46:54.589Z,22.79
2022-08-31T10:49:22.309Z,22.74
2022-08-31T10:52:03.303Z,22.51
2022-08-31T10:54:49.120Z,22.44
2022-08-31T10:57:51.275Z,22.19
2022-08-31T11:00:47.629Z,22.20
2022-08-31T11:03:51.868Z,22.63
2022-08-31T11:06:18.853Z,22.93
2022-08-31T11:08:54.237Z,23.06
2022-08-31T11:11:31.878Z,23.40
2022-08-31T11:14:17.795Z,23.06
2022-08-31T11:17:13.341Z,23.34
2022-08-31T11:20:02.572Z,23.37
2022-08-31T11:22:37.691Z,23.15
2022-08-31T11:25:34.135Z,23.60
2022-08-31T11:28:10.201Z,22.91
2022-08-31T11:30:42.248Z,23.33
2022-08-31T11:33:19.825Z,23.52
2022-08-31T11:35:50.124Z,25.45
2022-08-31T11:39:03.656Z,25.34
2022-08-31T11:41:46.649Z,24.97
2022-08-31T11:44:33.187Z,24.20
2022-08-31T11:47:08.716Z,23.98
2022-08-31T11:49:46.070Z,23.38
2022-08-31T11:52:29.848Z,23.20
2022-08-31T11:55:01.736Z,22.85
2022-08-31T11:57:37.734Z,22.83
2022-08-31T12:00:19.566Z,22.84
2022-08-31T12:03:04.579Z,22.59
2022-08-31T12:05:51.077Z,22.31
2022-08-31T12:08:18.242Z,22.55
2022-08-31T12:11:05.528Z,22.84
2022-08-31T12:13:40.124Z,22.93
2022-08-31T12:16:28.305Z,23.02
2022-08-31T12:19:09.059Z,23.52
2022-08-31T12:21:57.627Z,23.40
2022-08-31T12:24:30.389Z,22.80
2022-08-31T12:27:22.118Z,21.83
2022-08-31T12:29:50.221Z,21.55
2022-08-31T12:32:23.290Z,21.20
2022-08-31T12:34:55.919Z,21.08
2022-08-31T12:37:34.987Z,20.83
2022-08-31T12:40:22.701Z,21.10
2022-08-31T12:42:58.009Z,21.13
2022-08-31T12:45:40.102Z,21.27
2022-08-31T12:48:20.332Z,21.59
2022-08-31T12:51:05.592Z,21.53
2022-08-31T12:53:53.966Z,21.50
2022-08-31T12:56:51.860Z,21.26
2022-08-31T12:59:45.743Z,21.24
2022-08-31T13:02:15.994Z,20.96
2022-08-31T13:04:45.464Z,21.09
2022-08-31T13:07:29.086Z,20.92
2022-08-31T13:10:06.818Z,21.00
2022-08-31T13:12:34.147Z,20.87
2022-08-31T13:15:01.225Z,20.91
2022-08-31T13:17:36.783Z,20.82
2022-08-31T13:20:07.674Z,20.81
2022-08-31T13:22:41.859Z,21.26
2022-08-31T13:25:33.293Z,21.37
2022-08-31T13:28:01.203Z,21.27
2022-08-31T13:30:28.249Z,21.15
2022-08-31T13:32:55.716Z,21.21
2022-08-31T13:35:31.934Z,21.33
2022-08-31T13:38:08.109Z,21.33
2022-08-31T13:40:39.683Z,21.27
2022-08-31T13:43:10.413Z,21.22
2022-08-31T13:45:50.583Z,20.85
2022-08-31T13:48:32.209Z,20.90
2022-08-31T13:51:14.913Z,20.97
2022-08-31T13:54:03.845Z,20.79
2022-08-31T13:56:49.000Z,20.90
2022-08-31T13:59:24.648Z,20.63
2022-08-31T14:02:05.928Z,20.72
2022-08-31T14:04:48.507Z,20.69
2022-08-31T14:07:21.831Z,20.63
2022-08-31T14:09:50.941Z,20.55
2022-08-31T14:12:46.665Z,20.47
2022-08-31T14:15:19.538Z,20.36
2022-08-31T14:21:20.982Z,19.75
2022-08-31T14:24:03.270Z,19.64
2022-08-31T14:26:42.611Z,19.75
2022-08-31T14:29:13.324Z,19.73
2022-08-31T14:31:52.483Z,19.83
2022-08-31T14:34:32.271Z,19.79
2022-08-31T14:37:02.557Z,19.81
2022-08-31T14:39:48.129Z,19.64
2022-08-31T14:42:29.130Z,19.31
2022-08-31T14:45:00.744Z,19.45
2022-08-31T14:47:30.561Z,19.40
2022-08-31T14:50:08.511Z,19.51
2022-08-31T14:52:38.568Z,19.45
2022-08-31T14:55:09.303Z,19.32
2022-08-31T14:57:38.243Z,19.13
2022-08-31T15:00:07.512Z,19.13
2022-08-31T15:02:35.479Z,19.08
2022-08-31T15:05:06.521Z,19.09
2022-08-31T15:07:36.452Z,19.09
2022-08-31T15:10:06.866Z,18.93
2022-08-31T15:12:35.532Z,18.81
2022-08-31T15:15:02.545Z,18.68
2022-08-31T15:17:34.325Z,18.68
2022-08-31T15:20:03.540Z,18.69
2022-08-31T15:22:33.275Z,18.50
2022-08-31T15:25:00.390Z,18.61
2022-08-31T15:27:29.155Z,18.52
2022-08-31T15:30:01.392Z,18.43
2022-08-31T15:32:31.724Z,18.32
2022-08-31T15:34:58.748Z,18.27
2022-08-31T15:37:32.148Z,18.31
2022-08-31T15:40:02.267Z,18.23
2022-08-31T15:42:37.556Z,18.21
2022-08-31T15:45:05.665Z,18.15
2022-08-31T15:47:54.815Z,18.03
2022-08-31T15:50:31.954Z,18.17
2022-08-31T15:53:08.985Z,18.18
2022-08-31T15:55:40.704Z,18.18
2022-08-31T15:58:09.551Z,18.06
2022-08-31T16:00:37.659Z,18.10
2022-08-31T16:03:06.427Z,18.08
2022-08-31T16:05:35.914Z,18.04
2022-08-31T16:08:03.397Z,18.01
2022-08-31T16:10:31.178Z,17.81
2022-08-31T16:12:58.209Z,17.83
2022-08-31T16:15:26.232Z,17.79
2022-08-31T16:17:57.709Z,17.84
2022-08-31T16:20:27.520Z,17.85
2022-08-31T16:22:55.329Z,17.87
2022-08-31T16:25:22.366Z,17.75
2022-08-31T16:27:49.999Z,17.58
2022-08-31T16:30:17.057Z,17.61
2022-08-31T16:32:46.432Z,17.64
2022-08-31T16:35:15.190Z,17.48
2022-08-31T16:37:42.205Z,17.49
2022-08-31T16:40:09.995Z,17.46
2022-08-31T16:42:37.300Z,17.33
2022-08-31T16:45:04.790Z,17.38
2022-08-31T16:47:31.878Z,17.26
2022-08-31T16:50:02.534Z,17.25
2022-08-31T16:52:30.916Z,17.26
2022-08-31T16:54:58.035Z,17.35
2022-08-31T16:57:28.400Z,17.40
2022-08-31T16:59:59.449Z,17.35
2022-08-31T17:02:27.753Z,17.08
2022-08-31T17:05:00.658Z,17.10
2022-08-31T17:07:29.126Z,17.21
2022-08-31T17:10:07.191Z,17.09
2022-08-31T17:12:34.906Z,16.98
2022-08-31T17:15:03.815Z,17.17
2022-08-31T17:17:32.990Z,17.18
2022-08-31T17:20:00.867Z,17.15
2022-08-31T17:22:33.264Z,17.13
2022-08-31T17:25:03.754Z,17.11
2022-08-31T17:27:33.470Z,17.15
2022-08-31T17:30:05.139Z,16.95
2022-08-31T17:32:32.953Z,16.96
2022-08-31T17:34:59.931Z,16.79
2022-08-31T17:37:36.586Z,16.75
2022-08-31T17:40:09.086Z,16.77
2022-08-31T17:42:37.468Z,16.85
2022-08-31T17:45:05.893Z,16.86
2022-08-31T17:47:33.380Z,16.79
2022-08-31T17:50:00.637Z,16.80
2022-08-31T17:52:28.197Z,16.87
2022-08-31T17:54:55.398Z,16.87
2022-08-31T17:57:25.335Z,16.80
2022-08-31T17:59:53.415Z,16.79
2022-08-31T18:02:32.366Z,16.80
2022-08-31T18:05:00.848Z,16.83
2022-08-31T18:07:28.733Z,16.76
2022-08-31T18:09:56.173Z,16.60
2022-08-31T18:12:25.678Z,16.66
2022-08-31T18:14:54.030Z,16.69
2022-08-31T18:17:25.679Z,16.60
2022-08-31T18:19:52.913Z,16.61
2022-08-31T18:22:19.992Z,16.67
2022-08-31T18:24:47.011Z,16.53
2022-08-31T18:27:17.880Z,16.40
2022-08-31T18:29:45.466Z,16.32
2022-08-31T18:32:12.691Z,16.24
2022-08-31T18:34:44.910Z,16.25
2022-08-31T18:37:13.138Z,16.27
2022-08-31T18:40:08.559Z,16.25
2022-08-31T18:42:56.848Z,16.24
2022-08-31T18:45:25.229Z,16.21
2022-08-31T18:48:23.342Z,16.14
2022-08-31T18:50:46.758Z,16.06
2022-08-31T18:53:27.426Z,16.01
2022-08-31T18:55:59.478Z,15.95
2022-08-31T18:58:26.538Z,15.95
2022-08-31T19:00:57.321Z,15.89
2022-08-31T19:03:25.871Z,15.72
2022-08-31T19:05:52.951Z,15.66
2022-08-31T19:08:20.059Z,15.73
2022-08-31T19:10:49.135Z,15.69
2022-08-31T19:13:16.363Z,15.69
2022-08-31T19:15:44.374Z,15.61
2022-08-31T19:18:11.572Z,15.60
2022-08-31T19:20:39.945Z,15.51
2022-08-31T19:23:08.125Z,15.39
2022-08-31T19:25:42.351Z,15.30
2022-08-31T19:28:10.066Z,15.32
2022-08-31T19:30:38.118Z,15.24
2022-08-31T19:33:11.506Z,15.20
2022-08-31T19:35:38.541Z,15.14
2022-08-31T19:38:05.948Z,15.11
2022-08-31T19:40:40.064Z,15.07
2022-08-31T19:45:54.500Z,15.01
2022-08-31T19:48:23.517Z,14.96
2022-08-31T19:50:52.307Z,14.82
2022-08-31T19:53:21.595Z,14.74
2022-08-31T19:55:51.078Z,14.58
2022-08-31T19:58:22.155Z,14.54
2022-08-31T20:00:50.035Z,14.44
2022-08-31T20:03:19.379Z,14.42
2022-08-31T20:05:47.655Z,14.43
2022-08-31T20:08:14.597Z,14.41
2022-08-31T20:10:44.115Z,14.33
2022-08-31T20:13:12.680Z,14.38
2022-08-31T20:15:45.120Z,14.31
2022-08-31T20:18:12.896Z,14.29
2022-08-31T20:20:45.955Z,14.20
2022-08-31T20:23:16.717Z,14.22
2022-08-31T20:25:49.760Z,14.16
2022-08-31T20:28:25.547Z,14.02
2022-08-31T20:30:59.183Z,14.10
2022-08-31T20:33:27.576Z,14.01
2022-08-31T20:35:54.677Z,14.03
2022-08-31T20:38:21.664Z,14.01
2022-08-31T20:40:52.753Z,13.98
2022-08-31T20:43:21.239Z,13.97
2022-08-31T20:45:48.830Z,13.98
2022-08-31T20:48:34.401Z,13.90
2022-08-31T20:51:16.324Z,13.82
2022-08-31T20:53:44.687Z,13.82
2022-08-31T20:56:16.375Z,13.80
2022-08-31T20:58:46.123Z,13.73
2022-08-31T21:01:14.255Z,13.70
2022-08-31T21:03:41.965Z,13.73
2022-08-31T21:06:11.773Z,13.77
2022-08-31T21:08:41.011Z,13.72
2022-08-31T21:11:16.792Z,13.70
2022-08-31T21:13:44.661Z,13.68
2022-08-31T21:16:11.936Z,13.60
2022-08-31T21:18:40.537Z,13.66
2022-08-31T21:21:10.811Z,13.67
2022-08-31T21:23:38.609Z,13.63
2022-08-31T21:26:09.520Z,13.62
2022-08-31T21:28:40.051Z,13.61
2022-08-31T21:31:16.456Z,13.60
2022-08-31T21:33:57.443Z,13.52
2022-08-31T21:36:26.739Z,13.54
2022-08-31T21:38:55.898Z,13.51
2022-08-31T21:41:26.815Z,13.53
2022-08-31T21:43:55.041Z,13.54
2022-08-31T21:46:25.370Z,13.58
2022-08-31T21:48:55.301Z,13.53
2022-08-31T21:51:24.076Z,13.55
2022-08-31T21:53:57.213Z,13.50
2022-08-31T21:56:26.703Z,13.43
2022-08-31T21:58:54.497Z,13.32
2022-08-31T22:01:24.069Z,13.40
2022-08-31T22:03:54.575Z,13.39
2022-08-31T22:06:31.199Z,13.27
2022-08-31T22:09:08.545Z,13.26
2022-08-31T22:11:41.883Z,13.16
2022-08-31T22:14:11.094Z,13.22
2022-08-31T22:16:39.563Z,13.18
2022-08-31T22:19:13.583Z,13.21
2022-08-31T22:21:51.281Z,13.08
2022-08-31T22:24:26.989Z,13.10
2022-08-31T22:26:57.093Z,13.12
2022-08-31T22:29:26.525Z,13.12
2022-08-31T22:31:56.528Z,13.03
2022-08-31T22:34:24.174Z,13.06
2022-08-31T22:36:52.428Z,12.99
2022-08-31T22:39:28.281Z,12.98
2022-08-31T22:41:56.842Z,12.99
2022-08-31T22:44:27.168Z,12.95
2022-08-31T22:46:56.591Z,12.84
2022-08-31T22:49:24.546Z,12.81
2022-08-31T22:51:51.732Z,12.75
2022-08-31T22:54:19.888Z,12.73
2022-08-31T22:56:47.747Z,12.63
2022-08-31T22:59:21.117Z,12.64
2022-08-31T23:01:52.386Z,12.56
2022-08-31T23:04:20.624Z,12.54
2022-08-31T23:06:49.854Z,12.57
2022-08-31T23:09:21.198Z,12.46
2022-08-31T23:11:51.681Z,12.47
2022-08-31T23:14:22.667Z,12.44
2022-08-31T23:16:55.239Z,12.41
2022-08-31T23:19:26.406Z,12.41
2022-08-31T23:21:56.749Z,12.36
2022-08-31T23:24:37.461Z,12.28
2022-08-31T23:27:07.469Z,12.39
2022-08-31T23:29:40.903Z,12.45
2022-08-31T23:32:12.178Z,12.52
2022-08-31T23:34:41.347Z,12.57
2022-08-31T23:37:09.901Z,12.57
2022-08-31T23:39:43.689Z,12.53
2022-08-31T23:42:13.935Z,12.49
2022-08-31T23:44:43.701Z,12.50
2022-08-31T23:47:13.844Z,12.56
2022-08-31T23:49:42.698Z,12.61
2022-08-31T23:52:12.138Z,12.72
2022-08-31T23:54:40.075Z,12.80
2022-08-31T23:57:08.586Z,12.83
